Regatta — V7DM3 — position and weather

sailwx.info

Track history (hours):
 
Tides and Currents Weather Stations Pressure Air Temp Water Temp Dewpoint Dewpoint Depression Visibility Wind Speed Wind Dir Waves Ship Positions

Regatta

Last reported at 2017-Apr-22 07:00 UTC. Time now 2017-Apr-24 03:21 UTC.
Position N 30°18' W 060°00'.

Length 180 m; draft 5.7 m.

Type: Passenger vessel. MMSI: 538001664.

Wind from 190 at 15 knots

Barometer 1019.4 mb
Air temperature 19.0 ° C
Visibility: greater than 10.8 NM
Dewpoint 17.5 ° C
Water temperature 19.0 ° C

Date/timePositionNaut miles runAvg speedWind from/ knotsBaromVisibWave heightAir tempDewpointWater temp
2017-Apr-22 07:00N 30°18' W 060°00'271 5.7 190 / 151019.410.8 19.017.519.0
2017-Apr-20 07:00N 32°12' W 064°48'137 5.3 360 / 61026.8 5.4 19.017.519.0
2017-Apr-19 05:00N 32°06' W 067°30'60219.3 350 / 281023.2 2.2 20.018.520.0
2017-Apr-17 21:42N 32°36' W 079°22'2 9.9
2017-Apr-17 21:30N 32°37' W 079°25'25 1.7
2017-Apr-17 07:00N 32°42' W 079°54'91 3.9 180 / 121027.5 5.4 20.018.520.0
2017-Apr-16 08:00N 31°12' W 079°42'211 8.8 110 / 251026.1 5.4 22.020.622.0
2017-Apr-15 08:00N 27°42' W 080°00'7512.1 050 / 251021.3 5.4 24.022.624.0
2017-Apr-15 01:50N 26°28' W 079°45'618.1
2017-Apr-15 01:30N 26°22' W 079°46'918.2
2017-Apr-15 01:00N 26°13' W 079°47'918.1
2017-Apr-15 00:30N 26°04' W 079°48'917.5
2017-Apr-15 00:01N 25°56' W 079°50'816.3
2017-Apr-14 23:31N 25°51' W 079°57'816.3
2017-Apr-14 23:00N 25°45' W 080°04'5 9.2
2017-Apr-14 22:30N 25°46' W 080°09'2 3.4
2017-Apr-14 21:58N 25°46' W 080°11'0 0.0
2017-Apr-14 21:25N 25°46' W 080°11'0 0.0
2017-Apr-14 20:52N 25°46' W 080°11'0 0.0
2017-Apr-14 20:28N 25°46' W 080°11'0 0.0
2017-Apr-14 19:55N 25°46' W 080°11'0 0.0
2017-Apr-14 19:28N 25°46' W 080°11'0 0.0
2017-Apr-14 18:55N 25°46' W 080°11'0 0.0
2017-Apr-14 18:28N 25°46' W 080°11'0 0.0
2017-Apr-14 17:58N 25°46' W 080°11'0 0.0
2017-Apr-14 17:28N 25°46' W 080°11'0 0.0
2017-Apr-14 16:58N 25°46' W 080°11'0 0.0
2017-Apr-14 16:28N 25°46' W 080°11'0 0.0
2017-Apr-14 15:58N 25°46' W 080°11'0 0.0
2017-Apr-14 15:28N 25°46' W 080°11'0 0.0
2017-Apr-14 14:58N 25°46' W 080°11'0 0.0
2017-Apr-14 14:28N 25°46' W 080°11'0 0.0
2017-Apr-14 13:28N 25°46' W 080°11'0 0.0
2017-Apr-14 12:58N 25°46' W 080°11'0 0.0
2017-Apr-14 12:28N 25°46' W 080°11'0 0.0
2017-Apr-14 11:58N 25°46' W 080°11'0 0.0
2017-Apr-14 11:28N 25°46' W 080°11'0 0.0
2017-Apr-14 10:58N 25°46' W 080°11'0 0.0
2017-Apr-14 10:28N 25°46' W 080°11'0 0.0
2017-Apr-14 09:58N 25°46' W 080°11'0 0.9
2017-Apr-14 09:31N 25°46' W 080°10'4 7.8
2017-Apr-14 09:00N 25°46' W 080°06'3 6.3
2017-Apr-14 08:31N 25°45' W 080°03'4 8.1
2017-Apr-14 08:01N 25°41' W 080°02'713.1
2017-Apr-14 07:30N 25°35' W 080°00'714.0
2017-Apr-14 07:00N 25°28' W 079°60'1615.6
2017-Apr-14 06:00N 25°12' W 080°00'4515.0 050 / 281020.2 5.4 24.022.624.0
2017-Apr-14 03:00N 24°36' W 080°30'   070 / 181024.1 24.018.026.0
Track history (hours):
 
Tides and Currents Weather Stations Pressure Air Temp Water Temp Dewpoint Dewpoint Depression Visibility Wind Speed Wind Dir Waves Ship Positions

Regatta

Last reported at 2017-Apr-22 07:00 UTC. Time now 2017-Apr-24 03:21 UTC.
Position N 30°18' W 060°00'.

Length 180 m; draft 5.7 m.

Type: Passenger vessel. MMSI: 538001664.

Wind from 190 at 15 knots

Barometer 1019.4 mb
Air temperature 19.0 ° C
Visibility: greater than 10.8 NM
Dewpoint 17.5 ° C
Water temperature 19.0 ° C

Date/timePositionNaut miles runAvg speedWind from/ knotsBaromVisibWave heightAir tempDewpointWater temp
2017-Apr-22 07:00N 30°18' W 060°00'271 5.7 190 / 151019.410.8 19.017.519.0
2017-Apr-20 07:00N 32°12' W 064°48'137 5.3 360 / 61026.8 5.4 19.017.519.0
2017-Apr-19 05:00N 32°06' W 067°30'60219.3 350 / 281023.2 2.2 20.018.520.0
2017-Apr-17 21:42N 32°36' W 079°22'2 9.9
2017-Apr-17 21:30N 32°37' W 079°25'25 1.7
2017-Apr-17 07:00N 32°42' W 079°54'91 3.9 180 / 121027.5 5.4 20.018.520.0
2017-Apr-16 08:00N 31°12' W 079°42'211 8.8 110 / 251026.1 5.4 22.020.622.0
2017-Apr-15 08:00N 27°42' W 080°00'7512.1 050 / 251021.3 5.4 24.022.624.0
2017-Apr-15 01:50N 26°28' W 079°45'618.1
2017-Apr-15 01:30N 26°22' W 079°46'918.2
2017-Apr-15 01:00N 26°13' W 079°47'918.1
2017-Apr-15 00:30N 26°04' W 079°48'917.5
2017-Apr-15 00:01N 25°56' W 079°50'816.3
2017-Apr-14 23:31N 25°51' W 079°57'816.3
2017-Apr-14 23:00N 25°45' W 080°04'5 9.2
2017-Apr-14 22:30N 25°46' W 080°09'2 3.4
2017-Apr-14 21:58N 25°46' W 080°11'0 0.0
2017-Apr-14 21:25N 25°46' W 080°11'0 0.0
2017-Apr-14 20:52N 25°46' W 080°11'0 0.0
2017-Apr-14 20:28N 25°46' W 080°11'0 0.0
2017-Apr-14 19:55N 25°46' W 080°11'0 0.0
2017-Apr-14 19:28N 25°46' W 080°11'0 0.0
2017-Apr-14 18:55N 25°46' W 080°11'0 0.0
2017-Apr-14 18:28N 25°46' W 080°11'0 0.0
2017-Apr-14 17:58N 25°46' W 080°11'0 0.0
2017-Apr-14 17:28N 25°46' W 080°11'0 0.0
2017-Apr-14 16:58N 25°46' W 080°11'0 0.0
2017-Apr-14 16:28N 25°46' W 080°11'0 0.0
2017-Apr-14 15:58N 25°46' W 080°11'0 0.0
2017-Apr-14 15:28N 25°46' W 080°11'0 0.0
2017-Apr-14 14:58N 25°46' W 080°11'0 0.0
2017-Apr-14 14:28N 25°46' W 080°11'0 0.0
2017-Apr-14 13:28N 25°46' W 080°11'0 0.0
2017-Apr-14 12:58N 25°46' W 080°11'0 0.0
2017-Apr-14 12:28N 25°46' W 080°11'0 0.0
2017-Apr-14 11:58N 25°46' W 080°11'0 0.0
2017-Apr-14 11:28N 25°46' W 080°11'0 0.0
2017-Apr-14 10:58N 25°46' W 080°11'0 0.0
2017-Apr-14 10:28N 25°46' W 080°11'0 0.0
2017-Apr-14 09:58N 25°46' W 080°11'0 0.9
2017-Apr-14 09:31N 25°46' W 080°10'4 7.8
2017-Apr-14 09:00N 25°46' W 080°06'3 6.3
2017-Apr-14 08:31N 25°45' W 080°03'4 8.1
2017-Apr-14 08:01N 25°41' W 080°02'713.1
2017-Apr-14 07:30N 25°35' W 080°00'714.0
2017-Apr-14 07:00N 25°28' W 079°60'1615.6
2017-Apr-14 06:00N 25°12' W 080°00'4515.0 050 / 281020.2 5.4 24.022.624.0
2017-Apr-14 03:00N 24°36' W 080°30'   070 / 181024.1 24.018.026.0

Dump ship's entire track history